Terminal Aerodrome Forecast
Issued by NWS

Home | Current Version | Previous Version | Text Only | Print | Product List | Glossary On
Versions: 1 2 3 4 5 6 7 8 9 10 11 12 13 14 15 16
309
FTUS45 KTFX 091733
TAFHVR
TAF
KHVR 091733Z 0918/1018 10007KT P6SM BKN030 OVC060
      TEMPO 0921/0923 4SM -SN OVC020
     FM100000 09008KT P6SM VCSH OVC045
     FM100600 08008KT 3SM -SN OVC030
     FM101500 07006KT 1SM -SN BKN007 OVC015=

USA.gov is the U.S. government's official web portal to all federal, state and local government web resources and services.